createdAt,value
2022-11-16T00:00:18.645Z,100397.50
2022-11-16T00:00:48.646Z,100400.80
2022-11-16T00:01:18.642Z,100401.81
2022-11-16T00:01:48.709Z,100401.30
2022-11-16T00:02:18.756Z,100405.38
2022-11-16T00:02:48.762Z,100406.88
2022-11-16T00:03:18.761Z,100401.48
2022-11-16T00:03:48.757Z,100402.27
2022-11-16T00:04:18.733Z,100405.41
2022-11-16T00:04:48.703Z,100402.79
2022-11-16T00:05:18.666Z,100400.45
2022-11-16T00:05:48.632Z,100401.92
2022-11-16T00:06:18.615Z,100397.84
2022-11-16T00:06:48.602Z,100397.84
2022-11-16T00:07:18.653Z,100398.33
2022-11-16T00:07:48.713Z,100400.14
2022-11-16T00:08:18.765Z,100394.54
2022-11-16T00:08:48.758Z,100396.05
2022-11-16T00:09:18.732Z,100398.81
2022-11-16T00:09:48.704Z,100397.16
2022-11-16T00:10:18.677Z,100395.53
2022-11-16T00:10:48.652Z,100388.63
2022-11-16T00:11:18.629Z,100397.84
2022-11-16T00:11:48.595Z,100394.72
2022-11-16T00:12:18.578Z,100387.79
2022-11-16T00:12:48.543Z,100388.30
2022-11-16T00:13:18.503Z,100390.42
2022-11-16T00:13:48.502Z,100385.16
2022-11-16T00:14:18.471Z,100389.73
2022-11-16T00:14:48.443Z,100380.05
2022-11-16T00:15:18.629Z,100382.19
2022-11-16T00:15:48.588Z,100381.84
2022-11-16T00:16:18.564Z,100383.52
2022-11-16T00:16:48.533Z,100385.16
2022-11-16T00:17:18.509Z,100378.06
2022-11-16T00:17:48.484Z,100379.06
2022-11-16T00:18:18.452Z,100380.87
2022-11-16T00:18:48.442Z,100381.20
2022-11-16T00:19:18.410Z,100375.78
2022-11-16T00:19:48.385Z,100379.55
2022-11-16T00:20:18.348Z,100378.24
2022-11-16T00:20:48.348Z,100381.38
2022-11-16T00:21:18.305Z,100374.28
2022-11-16T00:21:48.280Z,100374.25
2022-11-16T00:22:18.252Z,100377.05
2022-11-16T00:22:48.226Z,100374.75
2022-11-16T00:23:18.197Z,100377.73
2022-11-16T00:23:48.179Z,100374.43
2022-11-16T00:24:18.182Z,100378.20
2022-11-16T00:24:48.190Z,100375.73
2022-11-16T00:25:18.155Z,100375.23
2022-11-16T00:25:48.112Z,100375.75
2022-11-16T00:26:18.088Z,100372.27
2022-11-16T00:26:48.044Z,100374.28
2022-11-16T00:27:18.006Z,100371.14
2022-11-16T00:27:47.993Z,100376.06
2022-11-16T00:28:17.957Z,100373.58
2022-11-16T00:28:47.927Z,100370.47
2022-11-16T00:29:17.892Z,100372.58
2022-11-16T00:29:47.867Z,100374.29
2022-11-16T00:30:17.831Z,100374.11
2022-11-16T00:30:47.888Z,100370.02
2022-11-16T00:31:17.856Z,100374.59
2022-11-16T00:31:47.836Z,100373.28
2022-11-16T00:32:17.844Z,100376.05
2022-11-16T00:32:47.862Z,100373.75
2022-11-16T00:33:17.863Z,100372.60
2022-11-16T00:33:47.836Z,100372.94
2022-11-16T00:34:17.832Z,100373.09
2022-11-16T00:34:47.809Z,100371.94
2022-11-16T00:35:17.779Z,100375.06
2022-11-16T00:35:47.742Z,100373.74
2022-11-16T00:36:17.725Z,100374.05
2022-11-16T00:36:47.700Z,100375.70
2022-11-16T00:37:17.670Z,100380.66
2022-11-16T00:37:47.667Z,100377.86
2022-11-16T00:38:17.640Z,100381.96
2022-11-16T00:38:47.614Z,100377.20
2022-11-16T00:39:17.577Z,100372.60
2022-11-16T00:39:47.580Z,100372.28
2022-11-16T00:40:17.596Z,100374.89
2022-11-16T00:40:47.578Z,100372.28
2022-11-16T00:41:17.562Z,100376.38
2022-11-16T00:41:47.533Z,100375.23
2022-11-16T00:42:17.506Z,100377.84
2022-11-16T00:42:47.513Z,100378.36
2022-11-16T00:43:17.470Z,100372.59
2022-11-16T00:43:47.442Z,100373.91
2022-11-16T00:44:17.412Z,100374.72
2022-11-16T00:44:47.374Z,100375.88
2022-11-16T00:45:17.347Z,100373.09
2022-11-16T00:45:47.311Z,100374.73
2022-11-16T00:46:17.327Z,100376.00
2022-11-16T00:46:47.295Z,100374.51
2022-11-16T00:47:17.285Z,100374.67
2022-11-16T00:47:47.275Z,100371.22
2022-11-16T00:48:17.249Z,100376.37
2022-11-16T00:48:47.228Z,100372.74
2022-11-16T00:49:17.195Z,100369.92
2022-11-16T00:49:47.166Z,100364.84
2022-11-16T00:50:17.144Z,100366.65
2022-11-16T00:50:47.162Z,100365.78
2022-11-16T00:51:17.177Z,100366.31
2022-11-16T00:51:47.154Z,100363.97
2022-11-16T00:52:17.156Z,100364.14
2022-11-16T00:52:47.176Z,100365.11
2022-11-16T00:53:17.149Z,100360.81
2022-11-16T00:53:47.124Z,100358.83
2022-11-16T00:54:17.096Z,100358.20
2022-11-16T00:54:47.058Z,100362.63
2022-11-16T00:55:17.029Z,100360.98
2022-11-16T00:55:46.997Z,100360.64
2022-11-16T00:56:16.966Z,100364.12
2022-11-16T00:56:46.941Z,100359.19
2022-11-16T00:57:16.910Z,100359.17
2022-11-16T00:57:46.883Z,100359.02
2022-11-16T00:58:16.892Z,100355.88
2022-11-16T00:58:46.854Z,100356.56
2022-11-16T00:59:16.825Z,100355.55
2022-11-16T00:59:46.821Z,100359.34
2022-11-16T01:00:16.820Z,100354.55
2022-11-16T01:00:46.784Z,100357.99
2022-11-16T01:01:16.855Z,100355.03
2022-11-16T01:01:46.959Z,100350.57
2022-11-16T01:02:16.976Z,100351.25
2022-11-16T01:02:46.950Z,100351.77
2022-11-16T01:03:16.931Z,100349.11
2022-11-16T01:03:46.914Z,100352.55
2022-11-16T01:04:16.887Z,100348.75
2022-11-16T01:04:46.872Z,100348.12
2022-11-16T01:05:16.844Z,100350.91
2022-11-16T01:05:46.819Z,100347.95
2022-11-16T01:06:16.836Z,100353.39
2022-11-16T01:06:46.920Z,100352.59
2022-11-16T01:07:16.980Z,100352.88
2022-11-16T01:07:47.055Z,100352.41
2022-11-16T01:08:17.077Z,100354.86
2022-11-16T01:08:47.048Z,100354.20
2022-11-16T01:09:17.020Z,100353.69
2022-11-16T01:09:47.010Z,100350.59
2022-11-16T01:10:16.985Z,100348.77
2022-11-16T01:10:46.957Z,100354.52
2022-11-16T01:11:16.933Z,100352.03
2022-11-16T01:11:46.909Z,100357.97
2022-11-16T01:12:16.887Z,100355.69
2022-11-16T01:12:46.854Z,100353.88
2022-11-16T01:13:16.824Z,100354.36
2022-11-16T01:13:46.800Z,100356.16
2022-11-16T01:14:16.772Z,100356.50
2022-11-16T01:14:46.762Z,100356.51
2022-11-16T01:15:16.721Z,100355.34
2022-11-16T01:15:46.733Z,100351.22
2022-11-16T01:16:16.704Z,100353.53
2022-11-16T01:16:46.684Z,100356.34
2022-11-16T01:17:16.693Z,100358.29
2022-11-16T01:17:46.665Z,100357.14
2022-11-16T01:18:16.628Z,100356.97
2022-11-16T01:18:46.602Z,100363.55
2022-11-16T01:19:16.563Z,100357.92
2022-11-16T01:19:46.537Z,100358.27
2022-11-16T01:20:16.507Z,100357.97
2022-11-16T01:20:46.507Z,100360.59
2022-11-16T01:21:16.517Z,100360.61
2022-11-16T01:21:46.493Z,100361.44
2022-11-16T01:22:16.473Z,100360.30
2022-11-16T01:22:46.460Z,100360.30
2022-11-16T01:23:16.432Z,100356.84
2022-11-16T01:23:46.402Z,100356.48
2022-11-16T01:24:16.427Z,100355.66
2022-11-16T01:24:46.399Z,100360.09
2022-11-16T01:25:16.402Z,100356.00
2022-11-16T01:25:46.387Z,100359.47
2022-11-16T01:26:16.378Z,100358.40
2022-11-16T01:26:46.342Z,100358.80
2022-11-16T01:27:16.334Z,100354.37
2022-11-16T01:27:46.299Z,100355.05
2022-11-16T01:28:16.323Z,100356.85
2022-11-16T01:28:46.293Z,100356.53
2022-11-16T01:29:16.272Z,100356.69
2022-11-16T01:29:46.246Z,100352.55
2022-11-16T01:30:16.202Z,100352.75
2022-11-16T01:30:46.182Z,100355.70
2022-11-16T01:31:16.156Z,100357.02
2022-11-16T01:31:46.128Z,100355.54
2022-11-16T01:32:16.091Z,100352.57
2022-11-16T01:32:46.088Z,100352.72
2022-11-16T01:33:16.061Z,100355.83
2022-11-16T01:33:46.023Z,100347.45
2022-11-16T01:34:15.988Z,100353.86
2022-11-16T01:34:45.951Z,100354.86
2022-11-16T01:35:15.917Z,100350.08
2022-11-16T01:35:45.886Z,100354.38
2022-11-16T01:36:15.864Z,100355.68
2022-11-16T01:36:45.833Z,100356.34
2022-11-16T01:37:15.829Z,100356.66
2022-11-16T01:37:45.802Z,100350.23
2022-11-16T01:38:15.768Z,100351.56
2022-11-16T01:38:45.873Z,100350.41
2022-11-16T01:39:15.907Z,100348.30
2022-11-16T01:39:45.876Z,100351.73
2022-11-16T01:40:15.839Z,100349.92
2022-11-16T01:40:45.812Z,100345.80
2022-11-16T01:41:15.794Z,100349.91
2022-11-16T01:41:45.767Z,100348.30
2022-11-16T01:42:15.739Z,100344.84
2022-11-16T01:42:45.710Z,100342.38
2022-11-16T01:43:15.677Z,100345.66
2022-11-16T01:43:45.686Z,100344.69
2022-11-16T01:44:15.691Z,100345.64
2022-11-16T01:44:45.669Z,100346.48
2022-11-16T01:45:15.639Z,100337.44
2022-11-16T01:45:45.612Z,100342.84
2022-11-16T01:46:15.584Z,100342.66
2022-11-16T01:46:45.562Z,100340.56
2022-11-16T01:47:15.532Z,100339.41
2022-11-16T01:47:45.512Z,100338.25
2022-11-16T01:48:15.574Z,100336.44
2022-11-16T01:48:45.718Z,100336.79
2022-11-16T01:49:15.712Z,100342.02
2022-11-16T01:49:45.703Z,100340.05
2022-11-16T01:50:15.676Z,100335.77
2022-11-16T01:50:45.668Z,100337.73
2022-11-16T01:51:15.635Z,100337.89
2022-11-16T01:51:45.604Z,100335.78
2022-11-16T01:52:15.570Z,100334.75
2022-11-16T01:52:45.554Z,100335.26
2022-11-16T01:53:15.536Z,100333.75
2022-11-16T01:53:45.621Z,100336.22
2022-11-16T01:54:15.601Z,100330.02
2022-11-16T01:54:45.575Z,100332.51
2022-11-16T01:55:15.866Z,100331.48
2022-11-16T01:55:46.005Z,100327.55
2022-11-16T01:56:17.859Z,100325.06
2022-11-16T01:56:49.341Z,100329.34
2022-11-16T01:57:20.746Z,100324.42
2022-11-16T01:57:58.594Z,100329.50
2022-11-16T01:58:28.558Z,100330.84
2022-11-16T01:58:58.596Z,100324.09
2022-11-16T01:59:28.578Z,100328.20
2022-11-16T01:59:58.597Z,100327.44
2022-11-16T02:00:28.577Z,100324.26
2022-11-16T02:00:58.655Z,100335.11
2022-11-16T02:01:28.799Z,100326.39
2022-11-16T02:01:58.804Z,100326.05
2022-11-16T02:02:28.805Z,100325.09
2022-11-16T02:02:58.803Z,100325.27
2022-11-16T02:03:28.824Z,100321.01
2022-11-16T02:03:58.801Z,100322.16
2022-11-16T02:04:28.761Z,100320.03
2022-11-16T02:04:58.753Z,100323.60
2022-11-16T02:05:28.715Z,100317.69
2022-11-16T02:05:58.708Z,100321.79
2022-11-16T02:06:28.683Z,100318.98
2022-11-16T02:06:58.677Z,100315.73
2022-11-16T02:07:28.697Z,100318.31
2022-11-16T02:07:58.689Z,100317.66
2022-11-16T02:08:28.683Z,100317.98
2022-11-16T02:08:58.665Z,100316.67
2022-11-16T02:09:28.672Z,100315.05
2022-11-16T02:09:58.644Z,100315.03
2022-11-16T02:10:28.611Z,100316.98
2022-11-16T02:10:58.604Z,100310.24
2022-11-16T02:11:28.575Z,100308.91
2022-11-16T02:11:58.541Z,100311.23
2022-11-16T02:12:28.511Z,100309.95
2022-11-16T02:12:58.484Z,100308.78
2022-11-16T02:13:28.452Z,100308.81
2022-11-16T02:13:58.664Z,100309.12
2022-11-16T02:14:28.630Z,100310.94
2022-11-16T02:14:58.621Z,100307.17
2022-11-16T02:15:28.584Z,100306.84
2022-11-16T02:15:58.550Z,100305.70
2022-11-16T02:16:28.521Z,100303.84
2022-11-16T02:16:58.493Z,100306.02
2022-11-16T02:17:28.456Z,100302.89
2022-11-16T02:17:58.470Z,100299.42
2022-11-16T02:18:28.441Z,100306.02
2022-11-16T02:18:58.441Z,100301.41
2022-11-16T02:19:28.416Z,100300.72
2022-11-16T02:19:58.421Z,100301.69
2022-11-16T02:20:28.387Z,100297.62
2022-11-16T02:20:58.358Z,100296.27
2022-11-16T02:21:28.334Z,100299.92
2022-11-16T02:21:58.342Z,100296.12
2022-11-16T02:22:28.317Z,100293.18
2022-11-16T02:22:58.280Z,100296.48
2022-11-16T02:23:28.257Z,100295.09
2022-11-16T02:23:58.266Z,100293.81
2022-11-16T02:24:28.272Z,100292.34
2022-11-16T02:24:58.257Z,100290.53
2022-11-16T02:25:28.232Z,100296.11
2022-11-16T02:25:58.196Z,100294.66
2022-11-16T02:26:28.158Z,100296.33
2022-11-16T02:26:58.141Z,100294.84
2022-11-16T02:27:28.115Z,100292.02
2022-11-16T02:27:58.096Z,100296.48
2022-11-16T02:28:28.072Z,100295.14
2022-11-16T02:28:58.089Z,100293.67
2022-11-16T02:29:28.071Z,100294.66
2022-11-16T02:29:58.069Z,100294.79
2022-11-16T02:30:28.034Z,100293.12
2022-11-16T02:30:58.015Z,100294.27
2022-11-16T02:31:27.989Z,100293.79
2022-11-16T02:31:57.962Z,100290.03
2022-11-16T02:32:27.925Z,100298.77
2022-11-16T02:32:57.887Z,100293.50
2022-11-16T02:33:27.859Z,100297.95
2022-11-16T02:33:57.824Z,100299.55
2022-11-16T02:34:27.853Z,100299.39
2022-11-16T02:34:57.832Z,100292.62
2022-11-16T02:35:27.826Z,100291.80
2022-11-16T02:35:57.798Z,100296.27
2022-11-16T02:36:27.763Z,100293.77
2022-11-16T02:36:57.765Z,100291.80
2022-11-16T02:37:27.743Z,100292.98
2022-11-16T02:37:57.708Z,100293.83
2022-11-16T02:38:27.684Z,100292.50
2022-11-16T02:38:57.655Z,100289.05
2022-11-16T02:39:27.634Z,100293.52
2022-11-16T02:39:57.600Z,100291.47
2022-11-16T02:40:27.569Z,100290.03
2022-11-16T02:40:57.540Z,100295.08
2022-11-16T02:41:27.499Z,100289.66
2022-11-16T02:41:57.474Z,100290.81
2022-11-16T02:42:27.450Z,100291.99
2022-11-16T02:42:57.424Z,100290.03
2022-11-16T02:43:27.385Z,100289.72
2022-11-16T02:43:57.354Z,100289.56
2022-11-16T02:44:27.332Z,100290.89
2022-11-16T02:44:57.297Z,100290.71
2022-11-16T02:45:27.272Z,100291.86
2022-11-16T02:45:57.284Z,100288.42
2022-11-16T02:46:27.265Z,100291.88
2022-11-16T02:46:57.232Z,100292.38
2022-11-16T02:47:27.204Z,100292.34
2022-11-16T02:47:57.184Z,100290.52
2022-11-16T02:48:27.147Z,100286.72
2022-11-16T02:48:57.110Z,100288.06
2022-11-16T02:49:27.109Z,100287.50
2022-11-16T02:49:57.098Z,100283.94
2022-11-16T02:50:27.057Z,100286.86
2022-11-16T02:50:57.030Z,100284.93
2022-11-16T02:51:27.007Z,100288.06
2022-11-16T02:51:56.976Z,100287.52
2022-11-16T02:52:26.948Z,100289.81
2022-11-16T02:52:56.923Z,100287.67
2022-11-16T02:53:26.897Z,100288.02
2022-11-16T02:53:56.869Z,100289.19
2022-11-16T02:54:26.852Z,100287.40
2022-11-16T02:54:56.814Z,100284.45
2022-11-16T02:55:26.785Z,100284.78
2022-11-16T02:55:56.758Z,100287.23
2022-11-16T02:56:26.738Z,100287.58
2022-11-16T02:56:56.701Z,100285.42
2022-11-16T02:57:26.677Z,100286.74
2022-11-16T02:57:56.666Z,100287.09
2022-11-16T02:58:26.629Z,100290.69
2022-11-16T02:58:56.593Z,100288.58
2022-11-16T02:59:26.598Z,100288.42
2022-11-16T02:59:56.566Z,100288.09
2022-11-16T03:00:26.559Z,100284.30
2022-11-16T03:00:56.566Z,100288.22
2022-11-16T03:01:26.580Z,100283.94
2022-11-16T03:01:56.585Z,100282.44
2022-11-16T03:02:26.557Z,100284.73
2022-11-16T03:02:56.529Z,100287.69
2022-11-16T03:03:26.494Z,100284.11
2022-11-16T03:03:56.457Z,100289.38
2022-11-16T03:04:26.447Z,100282.94
2022-11-16T03:04:56.416Z,100283.28
2022-11-16T03:05:26.427Z,100286.20
2022-11-16T03:05:56.392Z,100282.45
2022-11-16T03:06:26.396Z,100284.25
2022-11-16T03:06:56.447Z,100280.27
2022-11-16T03:07:26.479Z,100278.63
2022-11-16T03:07:56.504Z,100285.69
2022-11-16T03:08:26.474Z,100279.47
2022-11-16T03:08:56.466Z,100283.24
2022-11-16T03:09:26.451Z,100282.91
2022-11-16T03:09:56.415Z,100281.41
2022-11-16T03:10:26.395Z,100283.39
2022-11-16T03:10:56.362Z,100281.92
2022-11-16T03:11:26.344Z,100284.59
2022-11-16T03:11:56.346Z,100280.97
2022-11-16T03:12:26.310Z,100278.50
2022-11-16T03:12:56.292Z,100278.66
2022-11-16T03:13:26.256Z,100276.81
2022-11-16T03:13:56.216Z,100280.09
2022-11-16T03:14:26.187Z,100278.61
2022-11-16T03:14:56.288Z,100279.11
2022-11-16T03:15:26.271Z,100276.48
2022-11-16T03:15:56.243Z,100276.67
2022-11-16T03:16:26.215Z,100276.81
2022-11-16T03:16:56.178Z,100276.05
2022-11-16T03:17:26.150Z,100276.70
2022-11-16T03:17:56.119Z,100279.78
2022-11-16T03:18:26.089Z,100275.19
2022-11-16T03:18:56.054Z,100283.07
2022-11-16T03:19:26.032Z,100289.98
2022-11-16T03:19:56.009Z,100286.05
2022-11-16T03:20:26.005Z,100289.66
2022-11-16T03:20:56.021Z,100293.95
2022-11-16T03:21:26.002Z,100292.65
2022-11-16T03:21:55.975Z,100299.04
2022-11-16T03:22:25.939Z,100302.33
2022-11-16T03:22:55.924Z,100305.31
2022-11-16T03:23:25.892Z,100307.34
2022-11-16T03:23:55.855Z,100307.00
2022-11-16T03:24:25.829Z,100305.20
2022-11-16T03:24:55.816Z,100307.00
2022-11-16T03:25:25.797Z,100306.14
2022-11-16T03:25:55.801Z,100301.53
2022-11-16T03:26:25.768Z,100301.34
2022-11-16T03:26:55.729Z,100296.36
2022-11-16T03:27:25.688Z,100296.41
2022-11-16T03:27:55.652Z,100292.27
2022-11-16T03:28:25.627Z,100293.42
2022-11-16T03:28:55.598Z,100288.95
2022-11-16T03:29:25.558Z,100287.02
2022-11-16T03:29:55.533Z,100285.02
2022-11-16T03:30:25.530Z,100281.05
2022-11-16T03:30:55.490Z,100278.58
2022-11-16T03:31:25.461Z,100281.38
2022-11-16T03:31:55.420Z,100277.11
2022-11-16T03:32:25.394Z,100279.25
2022-11-16T03:32:55.390Z,100271.86
2022-11-16T03:33:25.354Z,100272.97
2022-11-16T03:33:55.327Z,100273.13
2022-11-16T03:34:25.299Z,100274.48
2022-11-16T03:34:55.265Z,100272.52
2022-11-16T03:35:25.252Z,100275.48
2022-11-16T03:35:55.211Z,100275.00
2022-11-16T03:36:25.200Z,100274.98
2022-11-16T03:36:55.167Z,100267.73
2022-11-16T03:37:25.142Z,100265.58
2022-11-16T03:37:55.105Z,100266.44
2022-11-16T03:38:25.086Z,100260.00
2022-11-16T03:38:55.059Z,100258.02
2022-11-16T03:39:25.030Z,100260.95
2022-11-16T03:39:54.994Z,100261.93
2022-11-16T03:40:24.993Z,100260.47
2022-11-16T03:40:54.955Z,100267.91
2022-11-16T03:41:24.931Z,100267.91
2022-11-16T03:41:54.903Z,100264.29
2022-11-16T03:42:24.883Z,100270.22
2022-11-16T03:42:54.838Z,100278.95
2022-11-16T03:43:24.811Z,100282.40
2022-11-16T03:43:54.784Z,100276.59
2022-11-16T03:44:24.755Z,100282.71
2022-11-16T03:44:54.730Z,100281.39
2022-11-16T03:45:24.748Z,100278.94
2022-11-16T03:45:54.721Z,100287.47
2022-11-16T03:46:24.678Z,100284.17
2022-11-16T03:46:54.659Z,100287.48
2022-11-16T03:47:24.671Z,100285.19
2022-11-16T03:47:54.629Z,100291.58
2022-11-16T03:48:24.601Z,100289.11
2022-11-16T03:48:54.574Z,100290.44
2022-11-16T03:49:24.539Z,100289.28
2022-11-16T03:49:54.509Z,100288.81
2022-11-16T03:50:24.484Z,100288.30
2022-11-16T03:50:54.491Z,100290.57
2022-11-16T03:51:24.470Z,100285.66
2022-11-16T03:51:54.479Z,100290.75
2022-11-16T03:52:24.447Z,100286.62
2022-11-16T03:52:54.413Z,100285.68
2022-11-16T03:53:24.387Z,100282.22
2022-11-16T03:53:54.381Z,100282.05
2022-11-16T03:54:24.392Z,100284.70
2022-11-16T03:54:54.384Z,100286.35
2022-11-16T03:55:24.357Z,100280.76
2022-11-16T03:55:54.330Z,100283.20
2022-11-16T03:56:24.305Z,100277.13
2022-11-16T03:56:54.301Z,100277.47
2022-11-16T03:57:24.269Z,100280.59
2022-11-16T03:57:54.256Z,100281.58
2022-11-16T03:58:24.221Z,100276.81
2022-11-16T03:58:54.194Z,100279.95
2022-11-16T03:59:24.156Z,100279.59
2022-11-16T03:59:54.131Z,100280.26
2022-11-16T04:00:24.101Z,100281.72
2022-11-16T04:00:54.190Z,100274.97
2022-11-16T04:01:24.282Z,100272.99
2022-11-16T04:01:54.279Z,100267.57
2022-11-16T04:02:24.244Z,100270.02
2022-11-16T04:02:54.237Z,100270.86
2022-11-16T04:03:24.258Z,100271.51
2022-11-16T04:03:54.440Z,100273.61
2022-11-16T04:04:24.581Z,100270.02
2022-11-16T04:04:54.543Z,100265.58
2022-11-16T04:05:24.520Z,100266.58
2022-11-16T04:05:54.484Z,100267.08
2022-11-16T04:06:24.451Z,100269.18
2022-11-16T04:06:54.484Z,100263.28
2022-11-16T04:07:24.687Z,100267.09
2022-11-16T04:07:54.741Z,100265.92
2022-11-16T04:08:24.724Z,100271.05
2022-11-16T04:08:54.693Z,100271.20
2022-11-16T04:09:24.698Z,100264.62
2022-11-16T04:09:54.708Z,100267.91
2022-11-16T04:10:24.670Z,100269.51
2022-11-16T04:10:54.634Z,100266.06
2022-11-16T04:11:24.608Z,100270.33
2022-11-16T04:11:54.618Z,100276.27
2022-11-16T04:12:24.584Z,100276.91
2022-11-16T04:12:54.561Z,100269.50
2022-11-16T04:13:24.545Z,100278.72
2022-11-16T04:13:54.506Z,100282.38
2022-11-16T04:14:24.480Z,100277.61
2022-11-16T04:14:54.454Z,100282.40
2022-11-16T04:15:24.424Z,100283.84
2022-11-16T04:15:54.393Z,100285.19
2022-11-16T04:16:24.440Z,100283.02
2022-11-16T04:16:54.454Z,100284.02
2022-11-16T04:17:24.428Z,100287.47
2022-11-16T04:17:54.402Z,100284.38
2022-11-16T04:18:24.373Z,100283.34
2022-11-16T04:18:54.338Z,100280.93
2022-11-16T04:19:24.309Z,100288.64
2022-11-16T04:19:58.179Z,100285.52
2022-11-16T04:20:28.426Z,100286.36
2022-11-16T04:20:58.388Z,100286.39
2022-11-16T04:21:28.369Z,100285.72
2022-11-16T04:21:58.355Z,100287.98
2022-11-16T04:22:28.348Z,100287.17
2022-11-16T04:22:58.306Z,100288.49
2022-11-16T04:23:28.283Z,100287.84
2022-11-16T04:23:58.285Z,100285.86
2022-11-16T04:24:28.295Z,100285.84
2022-11-16T04:24:58.268Z,100290.78
2022-11-16T04:25:28.230Z,100289.47
2022-11-16T04:25:58.195Z,100286.83
2022-11-16T04:26:28.216Z,100285.02
2022-11-16T04:26:59.196Z,100284.53
2022-11-16T04:27:29.157Z,100289.30
2022-11-16T04:27:59.140Z,100288.66
2022-11-16T04:28:29.161Z,100284.67
2022-11-16T04:28:59.128Z,100283.39
2022-11-16T04:29:29.105Z,100281.91
2022-11-16T04:29:59.075Z,100284.69
2022-11-16T04:30:29.050Z,100282.57
2022-11-16T04:30:59.023Z,100284.85
2022-11-16T04:31:28.987Z,100285.20
2022-11-16T04:31:58.947Z,100281.09
2022-11-16T04:32:28.965Z,100282.23
2022-11-16T04:32:58.947Z,100280.22
2022-11-16T04:33:28.915Z,100283.39
2022-11-16T04:33:58.894Z,100282.56
2022-11-16T04:34:28.868Z,100282.55
2022-11-16T04:34:58.852Z,100281.41
2022-11-16T04:35:28.825Z,100282.56
2022-11-16T04:35:58.800Z,100287.16
2022-11-16T04:36:28.771Z,100282.89
2022-11-16T04:36:58.752Z,100283.88
2022-11-16T04:37:28.719Z,100280.45
2022-11-16T04:37:58.714Z,100283.84
2022-11-16T04:38:28.716Z,100282.55
2022-11-16T04:38:58.711Z,100287.00
2022-11-16T04:39:28.712Z,100282.06
2022-11-16T04:39:58.687Z,100283.39
2022-11-16T04:40:28.648Z,100283.05
2022-11-16T04:40:58.621Z,100278.92
2022-11-16T04:41:28.592Z,100284.84
2022-11-16T04:41:58.578Z,100284.50
2022-11-16T04:42:28.542Z,100287.12
2022-11-16T04:42:58.528Z,100282.86
2022-11-16T04:43:28.532Z,100285.33
2022-11-16T04:43:58.502Z,100284.17
2022-11-16T04:44:30.052Z,100282.86
2022-11-16T04:45:00.099Z,100283.20
2022-11-16T04:45:30.069Z,100284.67
2022-11-16T04:46:00.081Z,100283.07
2022-11-16T04:46:30.052Z,100280.58
2022-11-16T04:47:00.023Z,100282.06
2022-11-16T04:47:29.987Z,100285.19
2022-11-16T04:47:59.997Z,100285.21
2022-11-16T04:48:30.307Z,100282.08
2022-11-16T04:49:00.306Z,100288.70
2022-11-16T04:49:30.270Z,100286.08
2022-11-16T04:50:00.233Z,100287.19
2022-11-16T04:50:30.196Z,100286.02
2022-11-16T04:51:00.187Z,100288.97
2022-11-16T04:51:30.153Z,100289.44
2022-11-16T04:52:00.130Z,100291.77
2022-11-16T04:52:30.105Z,100289.48
2022-11-16T04:53:00.120Z,100289.50
2022-11-16T04:53:30.089Z,100290.80
2022-11-16T04:54:00.092Z,100294.16
2022-11-16T04:54:30.064Z,100295.95
2022-11-16T04:55:00.053Z,100295.31
2022-11-16T04:55:30.057Z,100290.53
2022-11-16T04:56:00.971Z,100295.98
2022-11-16T04:56:31.159Z,100295.64
2022-11-16T04:57:01.141Z,100291.99
2022-11-16T04:57:31.136Z,100291.52
2022-11-16T04:58:01.097Z,100295.59
2022-11-16T04:58:31.349Z,100294.62
2022-11-16T04:59:01.599Z,100297.25
2022-11-16T04:59:31.569Z,100290.63
2022-11-16T05:00:01.543Z,100291.47
2022-11-16T05:00:31.515Z,100294.11
2022-11-16T05:01:01.549Z,100292.45
2022-11-16T05:01:31.638Z,100296.89
2022-11-16T05:02:01.659Z,100293.23
2022-11-16T05:02:31.652Z,100293.44
2022-11-16T05:03:02.068Z,100293.11
2022-11-16T05:03:32.089Z,100289.38
2022-11-16T05:04:02.058Z,100295.92
2022-11-16T05:04:32.025Z,100294.95
2022-11-16T05:05:01.983Z,100294.62
2022-11-16T05:05:31.948Z,100295.12
2022-11-16T05:06:01.941Z,100294.81
2022-11-16T05:06:31.906Z,100296.80
2022-11-16T05:07:01.944Z,100295.32
2022-11-16T05:07:32.052Z,100297.27
2022-11-16T05:08:02.087Z,100299.42
2022-11-16T05:08:32.423Z,100293.18
2022-11-16T05:09:02.629Z,100293.98
2022-11-16T05:09:32.589Z,100293.66
2022-11-16T05:10:02.552Z,100294.16
2022-11-16T05:10:32.516Z,100297.45
2022-11-16T05:11:02.479Z,100294.31
2022-11-16T05:11:32.452Z,100292.84
2022-11-16T05:12:02.412Z,100288.89
2022-11-16T05:12:32.406Z,100291.66
2022-11-16T05:13:02.390Z,100286.25
2022-11-16T05:13:32.351Z,100287.25
2022-11-16T05:14:02.329Z,100287.23
2022-11-16T05:14:32.291Z,100290.37
2022-11-16T05:15:02.263Z,100286.35
2022-11-16T05:15:32.228Z,100290.47
2022-11-16T05:16:02.210Z,100289.48
2022-11-16T05:16:32.182Z,100288.37
2022-11-16T05:17:02.151Z,100285.25
2022-11-16T05:17:32.106Z,100287.72
2022-11-16T05:18:02.100Z,100289.54
2022-11-16T05:18:32.438Z,100288.04
2022-11-16T05:19:02.621Z,100287.07
2022-11-16T05:19:32.582Z,100288.38
2022-11-16T05:20:02.556Z,100291.36
2022-11-16T05:20:32.530Z,100290.36
2022-11-16T05:21:02.509Z,100290.88
2022-11-16T05:21:32.484Z,100293.99
2022-11-16T05:22:02.458Z,100290.37
2022-11-16T05:22:32.430Z,100293.00
2022-11-16T05:23:02.456Z,100289.72
2022-11-16T05:23:32.416Z,100290.03
2022-11-16T05:24:02.414Z,100286.09
2022-11-16T05:24:32.378Z,100288.89
2022-11-16T05:25:02.361Z,100290.52
2022-11-16T05:25:36.446Z,100291.05
2022-11-16T05:26:07.039Z,100292.87
2022-11-16T05:26:37.001Z,100290.55
2022-11-16T05:27:06.973Z,100293.33
2022-11-16T05:27:36.946Z,100292.38
2022-11-16T05:28:06.935Z,100291.52
2022-11-16T05:28:37.275Z,100290.20
2022-11-16T05:29:07.485Z,100291.53
2022-11-16T05:29:37.456Z,100290.53
2022-11-16T05:30:07.459Z,100291.14
2022-11-16T05:30:37.431Z,100293.78
2022-11-16T05:31:07.417Z,100292.20
2022-11-16T05:31:40.453Z,100300.43
2022-11-16T05:32:10.668Z,100292.39
2022-11-16T05:32:40.641Z,100294.67
2022-11-16T05:33:10.615Z,100294.34
2022-11-16T05:33:40.586Z,100297.02
2022-11-16T05:34:10.563Z,100299.14
2022-11-16T05:34:40.542Z,100295.81
2022-11-16T05:35:10.512Z,100291.22
2022-11-16T05:35:40.486Z,100292.20
2022-11-16T05:36:10.459Z,100294.03
2022-11-16T05:36:40.438Z,100295.83
2022-11-16T05:37:10.402Z,100297.66
2022-11-16T05:37:40.374Z,100290.08
2022-11-16T05:38:10.378Z,100298.30
2022-11-16T05:38:40.379Z,100293.89
2022-11-16T05:39:10.411Z,100297.19
2022-11-16T05:39:40.398Z,100285.69
2022-11-16T05:40:10.366Z,100290.60
2022-11-16T05:40:40.332Z,100288.48
2022-11-16T05:41:10.316Z,100288.31
2022-11-16T05:41:40.289Z,100285.50
2022-11-16T05:42:10.260Z,100290.30
2022-11-16T05:42:40.241Z,100285.82